F/V Attalaya Berria — FHCB — position and weather

sailwx.info

Track history (hours):
 
Tides and Currents Weather Stations Pressure Air Temp Water Temp Dewpoint Dewpoint Depression Visibility Wind Speed Wind Dir Waves Ship Positions

F/V Attalaya Berria

Last reported at 2017-May-26 06:02 UTC. Time now 2017-May-27 02:17 UTC.
Position N 43°24' W 001°47'.

Length 26 m.

Type: Fishing. MMSI: 228315000.

Date/timePositionNaut miles runAvg speedWind from/ knotsBaromVisibWave heightAir tempDewpointWater temp
2017-May-26 06:02N 43°24' W 001°47'0 9.1
2017-May-26 06:00N 43°24' W 001°48'2 0.7
2017-May-26 03:23N 43°23' W 001°50'410.7
2017-May-26 03:00N 43°25' W 001°45'2 4.8
2017-May-26 02:30N 43°27' W 001°42'0 0.2
2017-May-26 02:00N 43°27' W 001°42'3 6.6
2017-May-26 01:30N 43°28' W 001°38'3 5.3
2017-May-26 01:00N 43°30' W 001°36'1 1.5
2017-May-26 00:30N 43°30' W 001°36'0 0.1
2017-May-26 00:00N 43°30' W 001°37'0 0.0
2017-May-25 23:30N 43°30' W 001°37'1 1.2
2017-May-25 23:00N 43°29' W 001°36'3 5.7
2017-May-25 22:30N 43°27' W 001°39'3 6.9
2017-May-25 22:00N 43°26' W 001°43'1 1.5
2017-May-25 21:27N 43°27' W 001°44'3 7.3
2017-May-25 21:00N 43°28' W 001°40'2 4.4
2017-May-25 20:30N 43°29' W 001°37'0 0.8
2017-May-25 20:00N 43°29' W 001°38'4 8.5
2017-May-25 19:30N 43°27' W 001°42'3 6.3
2017-May-25 19:00N 43°24' W 001°45'3 0.2
2017-May-25 06:30N 43°22' W 001°47'3 5.2
2017-May-25 06:00N 43°24' W 001°50'4 0.9
2017-May-25 02:14N 43°25' W 001°45'2 9.8
2017-May-25 01:59N 43°27' W 001°42'0 0.2
2017-May-25 01:27N 43°27' W 001°42'1 2.7
2017-May-25 01:00N 43°28' W 001°41'1 2.9
2017-May-25 00:30N 43°28' W 001°39'0 0.3
2017-May-25 00:00N 43°28' W 001°40'2 4.0
2017-May-24 23:30N 43°29' W 001°37'1 1.2
2017-May-24 23:00N 43°30' W 001°37'1 2.4
2017-May-24 22:30N 43°30' W 001°35'2 4.2
2017-May-24 22:00N 43°29' W 001°37'1 1.4
2017-May-24 21:30N 43°29' W 001°37'0 0.4
2017-May-24 21:00N 43°30' W 001°37'0 0.3
2017-May-24 20:30N 43°29' W 001°37'2 3.6
2017-May-24 19:56N 43°28' W 001°39'2 4.4
2017-May-24 19:30N 43°27' W 001°41'3 5.2
2017-May-24 19:00N 43°25' W 001°44'4 0.3
2017-May-24 05:48N 43°22' W 001°47'2 6.2
2017-May-24 05:29N 43°24' W 001°47'4 1.2
2017-May-24 02:01N 43°27' W 001°43'0 1.3
2017-May-24 01:41N 43°27' W 001°42'0 0.1
2017-May-24 01:20N 43°27' W 001°42'1 2.2
2017-May-24 00:51N 43°28' W 001°41'1 3.2
2017-May-24 00:28N 43°28' W 001°40'0 0.1
2017-May-24 00:00N 43°28' W 001°40'2 3.6
2017-May-23 23:30N 43°26' W 001°40'1 2.7
2017-May-23 23:00N 43°27' W 001°39'2 3.1
2017-May-23 22:30N 43°29' W 001°38'3 5.2
2017-May-23 22:00N 43°30' W 001°35'0 0.5
2017-May-23 21:29N 43°31' W 001°35'1 1.7
2017-May-23 21:00N 43°30' W 001°35'2 3.8
2017-May-23 20:30N 43°29' W 001°38'1 2.9
2017-May-23 20:00N 43°28' W 001°39'0 1.0
2017-May-23 19:30N 43°28' W 001°40'3 5.9
2017-May-23 19:00N 43°26' W 001°43'5 0.2
2017-May-23 00:13N 43°23' W 001°47'1 5.2
2017-May-23 00:00N 43°24' W 001°47'3 6.7
2017-May-22 23:30N 43°26' W 001°43'2 2.3
2017-May-22 22:49N 43°27' W 001°42'2 6.0
2017-May-22 22:31N 43°28' W 001°40'3 5.7
2017-May-22 22:00N 43°30' W 001°37'2 4.2
2017-May-22 21:30N 43°31' W 001°34'2 4.4
2017-May-22 21:00N 43°30' W 001°37'10 0.6
2017-May-22 04:52N 43°23' W 001°47'2 5.6
2017-May-22 04:26N 43°24' W 001°50'7 2.1
2017-May-22 01:06N 43°27' W 001°42'0 0.5
2017-May-22 00:57N 43°27' W 001°42'0 0.2
2017-May-22 00:29N 43°27' W 001°42'4 7.6
2017-May-21 23:58N 43°29' W 001°38'1 2.6
2017-May-21 23:31N 43°30' W 001°37'1 2.3
2017-May-21 23:01N 43°30' W 001°35'2 3.5
2017-May-21 22:30N 43°31' W 001°33'3 5.0
2017-May-21 22:00N 43°30' W 001°36'0 0.1
2017-May-21 21:31N 43°30' W 001°36'1 1.1
2017-May-21 21:00N 43°30' W 001°37'0 0.1
2017-May-21 20:30N 43°30' W 001°37'  
2017-May-18 06:12N 43°23' W 001°47'4 7.4
2017-May-18 05:39N 43°23' W 001°53'2 0.9
2017-May-18 03:05N 43°24' W 001°50'1 9.9
2017-May-18 02:58N 43°24' W 001°48'3 6.8
2017-May-18 02:30N 43°25' W 001°44'0 0.4
2017-May-18 02:00N 43°25' W 001°44'3 5.4
2017-May-18 01:30N 43°27' W 001°42'4 8.7
2017-May-18 01:00N 43°29' W 001°37'2 4.6
2017-May-18 00:30N 43°31' W 001°34'0 0.5
2017-May-18 00:00N 43°31' W 001°34'0 0.0
2017-May-17 23:29N 43°31' W 001°34'2 4.6
2017-May-17 23:00N 43°29' W 001°36'2 0.7
2017-May-17 20:15N 43°28' W 001°38'9 0.6
2017-May-17 06:52N 43°23' W 001°47'2 6.2
2017-May-17 06:29N 43°23' W 001°51'5 9.9
2017-May-17 06:00N 43°20' W 001°56'2 0.9
2017-May-17 03:13N 43°22' W 001°54'310.0
2017-May-17 02:58N 43°24' W 001°51'5 9.9
2017-May-17 02:29N 43°25' W 001°44'1 2.2
2017-May-17 02:00N 43°26' W 001°43'0 0.1
2017-May-17 01:30N 43°26' W 001°43'1 2.7
2017-May-17 01:01N 43°27' W 001°42'0 0.0
2017-May-17 00:31N 43°27' W 001°42'4 8.3
2017-May-17 00:00N 43°29' W 001°37'0 0.7
2017-May-16 23:30N 43°29' W 001°37'0 0.3
2017-May-16 23:01N 43°29' W 001°37'1 1.7
2017-May-16 22:31N 43°29' W 001°36'2 4.9
2017-May-16 22:00N 43°27' W 001°37'2 4.0
2017-May-16 21:31N 43°29' W 001°38'2 4.4
2017-May-16 21:00N 43°29' W 001°35'2 3.8
2017-May-16 20:30N 43°29' W 001°37'0 0.6
2017-May-16 20:00N 43°29' W 001°38'4 7.8
2017-May-16 19:30N 43°27' W 001°42'2 5.0
2017-May-16 19:01N 43°25' W 001°44'  
Track history (hours):
 
Tides and Currents Weather Stations Pressure Air Temp Water Temp Dewpoint Dewpoint Depression Visibility Wind Speed Wind Dir Waves Ship Positions

F/V Attalaya Berria

Last reported at 2017-May-26 06:02 UTC. Time now 2017-May-27 02:17 UTC.
Position N 43°24' W 001°47'.

Length 26 m.

Type: Fishing. MMSI: 228315000.

Date/timePositionNaut miles runAvg speedWind from/ knotsBaromVisibWave heightAir tempDewpointWater temp
2017-May-26 06:02N 43°24' W 001°47'0 9.1
2017-May-26 06:00N 43°24' W 001°48'2 0.7
2017-May-26 03:23N 43°23' W 001°50'410.7
2017-May-26 03:00N 43°25' W 001°45'2 4.8
2017-May-26 02:30N 43°27' W 001°42'0 0.2
2017-May-26 02:00N 43°27' W 001°42'3 6.6
2017-May-26 01:30N 43°28' W 001°38'3 5.3
2017-May-26 01:00N 43°30' W 001°36'1 1.5
2017-May-26 00:30N 43°30' W 001°36'0 0.1
2017-May-26 00:00N 43°30' W 001°37'0 0.0
2017-May-25 23:30N 43°30' W 001°37'1 1.2
2017-May-25 23:00N 43°29' W 001°36'3 5.7
2017-May-25 22:30N 43°27' W 001°39'3 6.9
2017-May-25 22:00N 43°26' W 001°43'1 1.5
2017-May-25 21:27N 43°27' W 001°44'3 7.3
2017-May-25 21:00N 43°28' W 001°40'2 4.4
2017-May-25 20:30N 43°29' W 001°37'0 0.8
2017-May-25 20:00N 43°29' W 001°38'4 8.5
2017-May-25 19:30N 43°27' W 001°42'3 6.3
2017-May-25 19:00N 43°24' W 001°45'3 0.2
2017-May-25 06:30N 43°22' W 001°47'3 5.2
2017-May-25 06:00N 43°24' W 001°50'4 0.9
2017-May-25 02:14N 43°25' W 001°45'2 9.8
2017-May-25 01:59N 43°27' W 001°42'0 0.2
2017-May-25 01:27N 43°27' W 001°42'1 2.7
2017-May-25 01:00N 43°28' W 001°41'1 2.9
2017-May-25 00:30N 43°28' W 001°39'0 0.3
2017-May-25 00:00N 43°28' W 001°40'2 4.0
2017-May-24 23:30N 43°29' W 001°37'1 1.2
2017-May-24 23:00N 43°30' W 001°37'1 2.4
2017-May-24 22:30N 43°30' W 001°35'2 4.2
2017-May-24 22:00N 43°29' W 001°37'1 1.4
2017-May-24 21:30N 43°29' W 001°37'0 0.4
2017-May-24 21:00N 43°30' W 001°37'0 0.3
2017-May-24 20:30N 43°29' W 001°37'2 3.6
2017-May-24 19:56N 43°28' W 001°39'2 4.4
2017-May-24 19:30N 43°27' W 001°41'3 5.2
2017-May-24 19:00N 43°25' W 001°44'4 0.3
2017-May-24 05:48N 43°22' W 001°47'2 6.2
2017-May-24 05:29N 43°24' W 001°47'4 1.2
2017-May-24 02:01N 43°27' W 001°43'0 1.3
2017-May-24 01:41N 43°27' W 001°42'0 0.1
2017-May-24 01:20N 43°27' W 001°42'1 2.2
2017-May-24 00:51N 43°28' W 001°41'1 3.2
2017-May-24 00:28N 43°28' W 001°40'0 0.1
2017-May-24 00:00N 43°28' W 001°40'2 3.6
2017-May-23 23:30N 43°26' W 001°40'1 2.7
2017-May-23 23:00N 43°27' W 001°39'2 3.1
2017-May-23 22:30N 43°29' W 001°38'3 5.2
2017-May-23 22:00N 43°30' W 001°35'0 0.5
2017-May-23 21:29N 43°31' W 001°35'1 1.7
2017-May-23 21:00N 43°30' W 001°35'2 3.8
2017-May-23 20:30N 43°29' W 001°38'1 2.9
2017-May-23 20:00N 43°28' W 001°39'0 1.0
2017-May-23 19:30N 43°28' W 001°40'3 5.9
2017-May-23 19:00N 43°26' W 001°43'5 0.2
2017-May-23 00:13N 43°23' W 001°47'1 5.2
2017-May-23 00:00N 43°24' W 001°47'3 6.7
2017-May-22 23:30N 43°26' W 001°43'2 2.3
2017-May-22 22:49N 43°27' W 001°42'2 6.0
2017-May-22 22:31N 43°28' W 001°40'3 5.7
2017-May-22 22:00N 43°30' W 001°37'2 4.2
2017-May-22 21:30N 43°31' W 001°34'2 4.4
2017-May-22 21:00N 43°30' W 001°37'10 0.6
2017-May-22 04:52N 43°23' W 001°47'2 5.6
2017-May-22 04:26N 43°24' W 001°50'7 2.1
2017-May-22 01:06N 43°27' W 001°42'0 0.5
2017-May-22 00:57N 43°27' W 001°42'0 0.2
2017-May-22 00:29N 43°27' W 001°42'4 7.6
2017-May-21 23:58N 43°29' W 001°38'1 2.6
2017-May-21 23:31N 43°30' W 001°37'1 2.3
2017-May-21 23:01N 43°30' W 001°35'2 3.5
2017-May-21 22:30N 43°31' W 001°33'3 5.0
2017-May-21 22:00N 43°30' W 001°36'0 0.1
2017-May-21 21:31N 43°30' W 001°36'1 1.1
2017-May-21 21:00N 43°30' W 001°37'0 0.1
2017-May-21 20:30N 43°30' W 001°37'  
2017-May-18 06:12N 43°23' W 001°47'4 7.4
2017-May-18 05:39N 43°23' W 001°53'2 0.9
2017-May-18 03:05N 43°24' W 001°50'1 9.9
2017-May-18 02:58N 43°24' W 001°48'3 6.8
2017-May-18 02:30N 43°25' W 001°44'0 0.4
2017-May-18 02:00N 43°25' W 001°44'3 5.4
2017-May-18 01:30N 43°27' W 001°42'4 8.7
2017-May-18 01:00N 43°29' W 001°37'2 4.6
2017-May-18 00:30N 43°31' W 001°34'0 0.5
2017-May-18 00:00N 43°31' W 001°34'0 0.0
2017-May-17 23:29N 43°31' W 001°34'2 4.6
2017-May-17 23:00N 43°29' W 001°36'2 0.7
2017-May-17 20:15N 43°28' W 001°38'9 0.6
2017-May-17 06:52N 43°23' W 001°47'2 6.2
2017-May-17 06:29N 43°23' W 001°51'5 9.9
2017-May-17 06:00N 43°20' W 001°56'2 0.9
2017-May-17 03:13N 43°22' W 001°54'310.0
2017-May-17 02:58N 43°24' W 001°51'5 9.9
2017-May-17 02:29N 43°25' W 001°44'1 2.2
2017-May-17 02:00N 43°26' W 001°43'0 0.1
2017-May-17 01:30N 43°26' W 001°43'1 2.7
2017-May-17 01:01N 43°27' W 001°42'0 0.0
2017-May-17 00:31N 43°27' W 001°42'4 8.3
2017-May-17 00:00N 43°29' W 001°37'0 0.7
2017-May-16 23:30N 43°29' W 001°37'0 0.3
2017-May-16 23:01N 43°29' W 001°37'1 1.7
2017-May-16 22:31N 43°29' W 001°36'2 4.9
2017-May-16 22:00N 43°27' W 001°37'2 4.0
2017-May-16 21:31N 43°29' W 001°38'2 4.4
2017-May-16 21:00N 43°29' W 001°35'2 3.8
2017-May-16 20:30N 43°29' W 001°37'0 0.6
2017-May-16 20:00N 43°29' W 001°38'4 7.8
2017-May-16 19:30N 43°27' W 001°42'2 5.0
2017-May-16 19:01N 43°25' W 001°44'  

Dump ship's entire track history